Union Pier, MI (49129)

3:04 PM EST on February 13, 2016 (GMT -0500)
New Buffalo Middle/High School | | Change Station
CLOSE
Current Station
Personal Weather Station
Location: New Buffalo, MI
Elevation: 656 ft
Nearby Weather Stations
Active Advisory: Winter Weather Advisory Active Notice: Local Storm Report

Elev 656 ft 41.80 °N, 86.73 °W | Updated 31 seconds ago

Overcast
Overcast
13.8 °F
Feels Like 14 °F
N
2.9
Wind Variable Wind from WSW
Gusts 12.0 mph

Today
High -- | Low -- °F
--% Chance of Precip.
Yesterday
High -- | Low -- °F
Precip. -- in
Pressure 30.54 in
Visibility 10.0 miles
Clouds Overcast 2400 ft
Windchill 14 °F
Dew Point 6 °F
Humidity 72%
Rainfall 0.00 in
Snow Depth Not available.
7:45 AM 6:16 PM
Waxing Crescent, 33% visible
METAR KMGC 131955Z AUTO 29006KT 10SM OVC024 M10/M16 A3054 RMK AO2
Pressure 30.54 in
Visibility 10.0 miles
Clouds Overcast 2400 ft
Windchill 14 °F
Dew Point 6 °F
Humidity 72%
Rainfall 0.00 in
Snow Depth Not available.
7:45 AM 6:16 PM
Waxing Crescent, 33% visible
METAR KMGC 131955Z AUTO 29006KT 10SM OVC024 M10/M16 A3054 RMK AO2

10-Day Weather Forecast

Almanac

Astronomy

Feb. 13, 2016 Rise Set
Actual Time
Civil Twilight
Nautical Twilight
Astronomical Twilight
Moon
Length of Visible Light
Length of Day
Tomorrow will be .
, % of the Moon is Illuminated

Today's Extremes

State Highs State Lows

Community

WunderPhotos

Upload Photos

1,892,653 photos uploaded!

WunderBlog® & News

Nearby

Air Quality

  Air Quality AQ Index Pollutant
Not available.

Snow Depth

Station Depth Elevation

Earthquake Activity

City Distance Mag. Time & Date
Minimum magnitude displayed is 2.5.

Coastal Water Temperatures

Place Temperature

Stations

Nearby Weather Stations

Station Location Temp. Windchill Dew Point Humidity Wind Precip. Elev Updated Type
                   

Watches & Warnings

Winter Weather Advisory
Issued: 10:15 AM CST Feb. 13, 2016 – National Weather Service

... Winter Weather Advisory remains in effect until 4 PM EST /3 PM
CST/ this afternoon...

Hazardous weather...

* lake effect snow showers will gradually diminish in coverage
   and intensity this afternoon.

* Additional accumulations are expected to be an inch or less.

* Wind chills as low as 5 below zero expected.

Impacts...

* untreated roads will remain snow covered and slick.

* Frostbite will be possible for anyone who is outside for
   prolonged periods this morning.

Precautionary/preparedness actions...

A Winter Weather Advisory for snow means that snow will cause low
visibilities and snow covered roads resulting in hazardous
driving conditions. Use caution when traveling... especially in
open areas.